createdAt,value
2024-05-09T00:00:31.633Z,103.00
2024-05-09T00:01:28.923Z,103.08
2024-05-09T00:02:27.893Z,103.26
2024-05-09T00:03:27.988Z,103.63
2024-05-09T00:04:27.982Z,103.16
2024-05-09T00:05:27.952Z,102.81
2024-05-09T00:06:27.909Z,101.65
2024-05-09T00:07:27.923Z,104.15
2024-05-09T00:08:28.028Z,102.00
2024-05-09T00:09:27.944Z,102.84
2024-05-09T00:11:27.955Z,102.21
2024-05-09T00:12:27.962Z,102.87
2024-05-09T00:13:27.947Z,102.74
2024-05-09T00:14:28.054Z,100.12
2024-05-09T00:15:27.914Z,101.09
2024-05-09T00:16:27.932Z,102.13
2024-05-09T00:17:28.148Z,102.24
2024-05-09T00:18:28.062Z,102.00
2024-05-09T00:19:28.158Z,98.95
2024-05-09T00:20:36.204Z,102.54
2024-05-09T00:21:29.042Z,102.54
2024-05-09T00:22:28.038Z,102.70
2024-05-09T00:23:28.174Z,102.85
2024-05-09T00:24:28.038Z,102.15
2024-05-09T00:25:28.040Z,98.52
2024-05-09T00:26:28.160Z,100.40
2024-05-09T00:27:28.038Z,100.31
2024-05-09T00:28:28.047Z,101.75
2024-05-09T00:29:28.110Z,99.76
2024-05-09T00:30:33.956Z,100.42
2024-05-09T00:31:29.034Z,100.52
2024-05-09T00:32:28.164Z,100.78
2024-05-09T00:33:28.327Z,100.88
2024-05-09T00:34:28.101Z,100.23
2024-05-09T00:35:28.067Z,101.19
2024-05-09T00:36:28.041Z,101.09
2024-05-09T00:37:28.034Z,101.21
2024-05-09T00:38:28.151Z,101.92
2024-05-09T00:39:28.061Z,101.18
2024-05-09T00:40:35.728Z,99.89
2024-05-09T00:41:29.114Z,99.96
2024-05-09T00:42:28.062Z,100.22
2024-05-09T00:43:28.055Z,100.47
2024-05-09T00:44:28.145Z,100.25
2024-05-09T00:45:28.052Z,100.13
2024-05-09T00:46:28.073Z,98.24
2024-05-09T00:47:28.167Z,98.15
2024-05-09T00:48:28.311Z,100.15
2024-05-09T00:49:28.202Z,97.73
2024-05-09T00:50:35.585Z,96.85
2024-05-09T00:51:29.121Z,97.04
2024-05-09T00:52:28.085Z,97.32
2024-05-09T00:53:28.148Z,97.68
2024-05-09T00:54:28.083Z,97.84
2024-05-09T00:55:28.748Z,99.85
2024-05-09T00:56:28.177Z,98.09
2024-05-09T00:57:28.133Z,99.26
2024-05-09T00:58:28.097Z,99.26
2024-05-09T00:59:28.191Z,100.39
2024-05-09T01:00:35.700Z,99.02
2024-05-09T01:01:29.144Z,99.11
2024-05-09T01:02:28.190Z,99.13
2024-05-09T01:03:28.329Z,99.08
2024-05-09T01:04:28.131Z,98.70
2024-05-09T01:05:28.133Z,98.83
2024-05-09T01:06:28.108Z,98.12
2024-05-09T01:07:28.116Z,98.71
2024-05-09T01:08:28.132Z,98.87
2024-05-09T01:09:28.126Z,100.72
2024-05-09T01:10:33.994Z,99.81
2024-05-09T01:11:29.194Z,99.83
2024-05-09T01:12:28.250Z,99.85
2024-05-09T01:13:28.112Z,99.97
2024-05-09T01:14:28.214Z,97.26
2024-05-09T01:15:28.107Z,98.07
2024-05-09T01:16:28.115Z,97.96
2024-05-09T01:17:28.257Z,98.99
2024-05-09T01:18:28.267Z,97.48
2024-05-09T01:19:28.343Z,97.39
2024-05-09T01:20:39.051Z,98.09
2024-05-09T01:21:29.150Z,98.24
2024-05-09T01:22:28.175Z,98.10
2024-05-09T01:23:28.262Z,98.54
2024-05-09T01:24:28.148Z,97.20
2024-05-09T01:25:28.204Z,97.10
2024-05-09T01:26:28.230Z,97.86
2024-05-09T01:27:28.166Z,97.41
2024-05-09T01:28:28.227Z,96.38
2024-05-09T01:29:28.342Z,96.51
2024-05-09T01:30:34.317Z,95.20
2024-05-09T01:31:29.255Z,95.38
2024-05-09T01:32:28.296Z,95.40
2024-05-09T01:33:28.344Z,96.30
2024-05-09T01:34:28.195Z,96.94
2024-05-09T01:35:28.240Z,97.37
2024-05-09T01:36:28.188Z,95.76
2024-05-09T01:37:28.197Z,95.61
2024-05-09T01:38:28.396Z,95.59
2024-05-09T01:39:28.187Z,97.50
2024-05-09T01:40:36.444Z,94.75
2024-05-09T01:41:29.291Z,94.87
2024-05-09T01:42:28.207Z,95.07
2024-05-09T01:43:28.187Z,95.63
2024-05-09T01:44:28.266Z,95.72
2024-05-09T01:45:28.208Z,96.30
2024-05-09T01:46:28.218Z,96.47
2024-05-09T01:47:28.345Z,95.02
2024-05-09T01:48:28.386Z,95.14
2024-05-09T01:49:28.318Z,95.45
2024-05-09T01:50:37.718Z,96.00
2024-05-09T01:51:29.340Z,96.07
2024-05-09T01:52:28.246Z,96.02
2024-05-09T01:53:28.326Z,92.46
2024-05-09T01:54:28.221Z,96.16
2024-05-09T01:55:28.232Z,93.41
2024-05-09T01:56:29.086Z,96.30
2024-05-09T01:57:28.240Z,95.12
2024-05-09T01:58:28.282Z,92.88
2024-05-09T01:59:28.651Z,94.98
2024-05-09T02:00:37.115Z,94.83
2024-05-09T02:01:29.394Z,94.88
2024-05-09T02:02:29.470Z,95.01
2024-05-09T02:03:28.480Z,95.47
2024-05-09T02:04:28.412Z,96.00
2024-05-09T02:05:28.394Z,94.63
2024-05-09T02:06:28.320Z,96.10
2024-05-09T02:07:28.296Z,93.16
2024-05-09T02:08:28.479Z,96.38
2024-05-09T02:09:28.338Z,94.22
2024-05-09T02:11:28.452Z,94.39
2024-05-09T02:12:28.469Z,94.33
2024-05-09T02:13:28.314Z,93.65
2024-05-09T02:14:28.418Z,92.80
2024-05-09T02:15:28.344Z,93.17
2024-05-09T02:16:28.314Z,92.90
2024-05-09T02:17:28.509Z,92.05
2024-05-09T02:18:28.449Z,91.32
2024-05-09T02:19:28.449Z,90.22
2024-05-09T02:20:34.194Z,91.79
2024-05-09T02:21:29.329Z,91.96
2024-05-09T02:22:28.325Z,92.14
2024-05-09T02:23:28.380Z,93.15
2024-05-09T02:24:28.333Z,91.02
2024-05-09T02:25:28.332Z,93.15
2024-05-09T02:26:28.434Z,93.04
2024-05-09T02:27:28.329Z,92.48
2024-05-09T02:28:28.362Z,91.95
2024-05-09T02:29:28.485Z,91.66
2024-05-09T02:30:36.382Z,92.62
2024-05-09T02:31:29.379Z,92.72
2024-05-09T02:32:28.516Z,92.79
2024-05-09T02:33:28.644Z,92.92
2024-05-09T02:34:28.470Z,92.39
2024-05-09T02:35:28.406Z,92.40
2024-05-09T02:36:28.386Z,90.87
2024-05-09T02:37:28.393Z,92.41
2024-05-09T02:38:28.433Z,91.12
2024-05-09T02:39:28.403Z,91.75
2024-05-09T02:40:35.931Z,89.27
2024-05-09T02:41:29.488Z,89.39
2024-05-09T02:42:28.401Z,89.76
2024-05-09T02:43:28.394Z,89.98
2024-05-09T02:44:28.502Z,91.40
2024-05-09T02:45:28.389Z,90.41
2024-05-09T02:46:28.399Z,88.11
2024-05-09T02:47:28.660Z,89.19
2024-05-09T02:48:28.526Z,91.71
2024-05-09T02:49:28.688Z,88.34
2024-05-09T02:50:34.633Z,92.18
2024-05-09T02:51:29.406Z,92.19
2024-05-09T02:52:28.408Z,92.11
2024-05-09T02:53:28.525Z,91.23
2024-05-09T02:54:28.434Z,88.35
2024-05-09T02:55:28.427Z,89.00
2024-05-09T02:56:28.572Z,91.25
2024-05-09T02:57:29.273Z,90.89
2024-05-09T02:58:28.451Z,91.70
2024-05-09T02:59:28.545Z,89.16
2024-05-09T03:00:36.280Z,88.08
2024-05-09T03:01:29.452Z,88.19
2024-05-09T03:02:28.531Z,88.41
2024-05-09T03:03:28.776Z,88.59
2024-05-09T03:04:28.522Z,90.60
2024-05-09T03:05:28.576Z,86.25
2024-05-09T03:06:28.479Z,89.30
2024-05-09T03:07:28.439Z,90.24
2024-05-09T03:08:28.558Z,86.57
2024-05-09T03:09:28.456Z,91.66
2024-05-09T03:10:29.325Z,88.41
2024-05-09T03:11:29.564Z,88.58
2024-05-09T03:12:28.506Z,88.76
2024-05-09T03:13:28.472Z,88.96
2024-05-09T03:14:28.639Z,89.77
2024-05-09T03:15:28.488Z,88.37
2024-05-09T03:16:28.468Z,90.15
2024-05-09T03:17:28.589Z,87.58
2024-05-09T03:18:28.610Z,87.02
2024-05-09T03:19:28.572Z,87.12
2024-05-09T03:20:33.621Z,87.46
2024-05-09T03:21:29.476Z,87.61
2024-05-09T03:22:28.477Z,87.50
2024-05-09T03:23:28.508Z,88.19
2024-05-09T03:24:28.475Z,87.52
2024-05-09T03:25:28.461Z,87.79
2024-05-09T03:26:28.576Z,87.51
2024-05-09T03:27:28.485Z,89.66
2024-05-09T03:28:28.495Z,85.61
2024-05-09T03:29:28.563Z,87.83
2024-05-09T03:30:38.031Z,85.37
2024-05-09T03:31:29.483Z,85.49
2024-05-09T03:32:28.643Z,85.79
2024-05-09T03:33:28.756Z,86.10
2024-05-09T03:34:28.499Z,85.22
2024-05-09T03:35:28.546Z,84.33
2024-05-09T03:36:28.488Z,86.24
2024-05-09T03:37:28.467Z,86.58
2024-05-09T03:38:28.533Z,82.30
2024-05-09T03:39:28.484Z,85.24
2024-05-09T03:40:31.010Z,84.61
2024-05-09T03:41:28.601Z,86.38
2024-05-09T03:42:28.482Z,85.81
2024-05-09T03:43:28.480Z,85.45
2024-05-09T03:44:28.532Z,84.55
2024-05-09T03:45:28.498Z,85.38
2024-05-09T03:46:28.520Z,84.36
2024-05-09T03:47:28.662Z,85.28
2024-05-09T03:48:28.560Z,86.24
2024-05-09T03:49:28.560Z,85.10
2024-05-09T03:50:33.740Z,84.87
2024-05-09T03:51:29.495Z,85.05
2024-05-09T03:52:28.508Z,85.10
2024-05-09T03:53:28.535Z,85.61
2024-05-09T03:54:28.511Z,85.71
2024-05-09T03:55:28.547Z,85.31
2024-05-09T03:56:28.566Z,85.06
2024-05-09T03:57:28.582Z,84.51
2024-05-09T03:58:29.294Z,85.04
2024-05-09T03:59:28.686Z,84.96
2024-05-09T04:01:28.616Z,83.38
2024-05-09T04:02:28.702Z,84.24
2024-05-09T04:03:28.865Z,84.05
2024-05-09T04:04:28.678Z,82.90
2024-05-09T04:05:28.656Z,84.29
2024-05-09T04:06:28.691Z,83.27
2024-05-09T04:07:28.754Z,81.82
2024-05-09T04:08:28.792Z,82.73
2024-05-09T04:09:28.837Z,82.03
2024-05-09T04:10:33.316Z,82.46
2024-05-09T04:11:29.974Z,82.58
2024-05-09T04:12:28.958Z,82.82
2024-05-09T04:13:28.892Z,83.60
2024-05-09T04:14:29.002Z,82.79
2024-05-09T04:15:28.876Z,83.40
2024-05-09T04:16:28.878Z,82.33
2024-05-09T04:17:29.102Z,80.89
2024-05-09T04:18:29.008Z,84.64
2024-05-09T04:19:28.982Z,83.90
2024-05-09T04:20:36.748Z,83.30
2024-05-09T04:21:29.931Z,83.40
2024-05-09T04:22:28.938Z,83.55
2024-05-09T04:23:36.179Z,50.00
2024-05-09T04:24:36.138Z,50.00
2024-05-09T04:25:36.150Z,50.00
2024-05-09T04:26:36.145Z,50.00
2024-05-09T04:27:36.151Z,50.00
2024-05-09T04:28:36.134Z,52.60
2024-05-09T04:29:36.197Z,50.50
2024-05-09T04:30:39.342Z,50.00
2024-05-09T04:31:48.252Z,50.00
2024-05-09T04:32:48.419Z,50.00
2024-05-09T04:33:48.356Z,50.00
2024-05-09T04:34:48.261Z,50.00
2024-05-09T04:35:48.231Z,50.00
2024-05-09T04:36:48.228Z,49.77
2024-05-09T04:37:48.241Z,51.72
2024-05-09T04:38:48.246Z,52.35
2024-05-09T04:39:48.215Z,50.00
2024-05-09T04:40:48.288Z,51.24
2024-05-09T04:41:48.231Z,52.19
2024-05-09T04:42:48.237Z,49.01
2024-05-09T04:43:48.275Z,51.76
2024-05-09T04:44:48.236Z,53.93
2024-05-09T04:45:48.250Z,53.38
2024-05-09T04:46:48.262Z,51.26
2024-05-09T04:47:48.601Z,52.45
2024-05-09T04:48:48.339Z,50.00
2024-05-09T04:49:48.255Z,51.79
2024-05-09T04:50:48.312Z,53.14
2024-05-09T04:51:48.246Z,51.61
2024-05-09T04:52:48.308Z,51.71
2024-05-09T04:53:48.255Z,49.89
2024-05-09T04:54:48.256Z,50.07
2024-05-09T04:55:48.285Z,53.19
2024-05-09T04:56:48.241Z,53.00
2024-05-09T04:57:48.252Z,52.29
2024-05-09T04:58:48.307Z,50.24
2024-05-09T04:59:48.273Z,50.22
2024-05-09T05:00:48.291Z,50.76
2024-05-09T05:01:48.385Z,52.42
2024-05-09T05:02:48.309Z,50.67
2024-05-09T05:03:48.370Z,50.92
2024-05-09T05:04:48.377Z,52.22
2024-05-09T05:05:48.306Z,51.21
2024-05-09T05:06:48.246Z,50.00
2024-05-09T05:07:48.302Z,50.75
2024-05-09T05:08:48.268Z,50.00
2024-05-09T05:09:48.252Z,53.31
2024-05-09T05:10:49.129Z,50.00
2024-05-09T05:11:48.454Z,50.60
2024-05-09T05:12:48.319Z,55.90
2024-05-09T05:13:48.387Z,51.88
2024-05-09T05:14:48.410Z,51.22
2024-05-09T05:15:48.487Z,50.00
2024-05-09T05:16:48.627Z,50.00
2024-05-09T05:17:48.784Z,51.18
2024-05-09T05:18:48.810Z,51.35
2024-05-09T05:19:48.998Z,51.79
2024-05-09T05:20:48.961Z,51.49
2024-05-09T05:21:48.959Z,52.90
2024-05-09T05:22:49.071Z,52.73
2024-05-09T05:23:49.114Z,55.16
2024-05-09T05:24:49.165Z,55.40
2024-05-09T05:25:49.444Z,52.88
2024-05-09T05:26:49.324Z,51.15
2024-05-09T05:27:49.421Z,50.46
2024-05-09T05:28:49.501Z,50.01
2024-05-09T05:29:49.580Z,51.56
2024-05-09T05:30:49.762Z,50.00
2024-05-09T05:31:49.829Z,50.47
2024-05-09T05:32:50.135Z,50.14
2024-05-09T05:33:49.885Z,52.90
2024-05-09T05:34:49.981Z,51.75
2024-05-09T05:35:49.981Z,51.80
2024-05-09T05:36:50.039Z,51.28
2024-05-09T05:37:50.202Z,50.91
2024-05-09T05:38:50.341Z,50.78
2024-05-09T05:39:50.247Z,51.04
2024-05-09T05:40:50.349Z,51.59
2024-05-09T05:41:50.403Z,50.97
2024-05-09T05:42:50.473Z,52.70
2024-05-09T05:43:50.593Z,52.29
2024-05-09T05:44:50.624Z,52.92
2024-05-09T05:45:50.705Z,52.04
2024-05-09T05:46:50.869Z,51.52
2024-05-09T05:47:51.088Z,51.91
2024-05-09T05:48:51.050Z,52.46
2024-05-09T05:49:51.072Z,50.53
2024-05-09T05:50:51.110Z,52.06
2024-05-09T05:51:51.152Z,50.39
2024-05-09T05:52:51.252Z,51.26
2024-05-09T05:53:51.392Z,51.42
2024-05-09T05:54:51.354Z,51.14
2024-05-09T05:55:51.507Z,50.14
2024-05-09T05:56:51.515Z,50.39
2024-05-09T05:57:51.612Z,51.64
2024-05-09T05:58:51.695Z,50.00
2024-05-09T05:59:51.741Z,51.09
2024-05-09T06:00:51.873Z,50.40
2024-05-09T06:01:51.969Z,51.90
2024-05-09T06:02:52.182Z,50.96
2024-05-09T06:03:52.129Z,51.90
2024-05-09T06:04:52.294Z,51.83
2024-05-09T06:05:52.209Z,50.75
2024-05-09T06:06:52.240Z,53.92
2024-05-09T06:07:52.340Z,52.13
2024-05-09T06:08:52.499Z,51.84
2024-05-09T06:09:52.472Z,51.41
2024-05-09T06:10:52.616Z,52.47
2024-05-09T06:11:52.666Z,52.85
2024-05-09T06:12:52.691Z,54.61
2024-05-09T06:13:52.793Z,52.44
2024-05-09T06:14:52.811Z,50.61
2024-05-09T06:15:52.912Z,50.37
2024-05-09T06:16:55.377Z,51.66
2024-05-09T06:17:53.119Z,51.75
2024-05-09T06:18:53.167Z,51.93
2024-05-09T06:19:53.166Z,51.68
2024-05-09T06:20:52.982Z,51.41
2024-05-09T06:21:52.960Z,49.50
2024-05-09T06:22:53.003Z,50.00
2024-05-09T06:23:52.983Z,51.90
2024-05-09T06:24:52.986Z,51.65
2024-05-09T06:25:52.990Z,51.69
2024-05-09T06:26:52.966Z,52.15
2024-05-09T06:27:52.956Z,52.85
2024-05-09T06:28:52.997Z,50.28
2024-05-09T06:29:52.971Z,54.78
2024-05-09T06:30:52.950Z,52.95
2024-05-09T06:31:52.998Z,50.00
2024-05-09T06:32:53.131Z,53.56
2024-05-09T06:33:53.142Z,52.85
2024-05-09T06:34:53.019Z,53.34
2024-05-09T06:35:53.026Z,50.45
2024-05-09T06:36:52.989Z,50.34
2024-05-09T06:37:53.026Z,51.24
2024-05-09T06:38:52.981Z,50.93
2024-05-09T06:39:53.007Z,50.44
2024-05-09T06:40:53.082Z,50.00
2024-05-09T06:41:52.989Z,50.31
2024-05-09T06:42:53.011Z,50.00
2024-05-09T06:43:53.037Z,52.96
2024-05-09T06:44:53.011Z,50.63
2024-05-09T06:45:53.162Z,53.48
2024-05-09T06:46:54.630Z,52.63
2024-05-09T06:47:53.301Z,52.83
2024-05-09T06:48:53.622Z,51.20
2024-05-09T06:49:53.021Z,50.61
2024-05-09T06:50:53.082Z,51.21
2024-05-09T06:51:53.025Z,51.30
2024-05-09T06:52:53.063Z,51.21
2024-05-09T06:53:53.005Z,53.11
2024-05-09T06:54:53.019Z,51.62
2024-05-09T06:55:53.207Z,50.03
2024-05-09T06:56:53.014Z,51.29
2024-05-09T06:57:53.050Z,53.05
2024-05-09T06:58:53.047Z,52.15
2024-05-09T06:59:53.004Z,50.75
2024-05-09T07:00:53.078Z,51.20
2024-05-09T07:01:53.030Z,52.75
2024-05-09T07:02:53.155Z,50.45
2024-05-09T07:03:53.175Z,50.71
2024-05-09T07:04:53.333Z,50.39
2024-05-09T07:05:53.118Z,51.88
2024-05-09T07:06:53.015Z,50.83
2024-05-09T07:07:53.071Z,52.64
2024-05-09T07:08:53.096Z,51.78
2024-05-09T07:09:53.044Z,50.70
2024-05-09T07:10:53.174Z,50.41
2024-05-09T07:11:53.100Z,50.08
2024-05-09T07:12:53.028Z,51.99
2024-05-09T07:13:53.091Z,51.95
2024-05-09T07:14:53.081Z,51.26
2024-05-09T07:15:53.033Z,51.79
2024-05-09T07:16:53.167Z,51.87
2024-05-09T07:17:53.315Z,51.88
2024-05-09T07:18:53.407Z,53.37
2024-05-09T07:19:53.311Z,50.66
2024-05-09T07:20:53.382Z,49.88
2024-05-09T07:21:53.445Z,50.36
2024-05-09T07:22:53.555Z,51.69
2024-05-09T07:23:53.690Z,50.44
2024-05-09T07:24:53.679Z,51.82
2024-05-09T07:25:53.795Z,50.79
2024-05-09T07:26:53.814Z,52.20
2024-05-09T07:27:53.905Z,50.33
2024-05-09T07:28:54.012Z,51.72
2024-05-09T07:29:54.061Z,52.48
2024-05-09T07:30:54.158Z,51.19
2024-05-09T07:31:54.266Z,51.65
2024-05-09T07:32:54.422Z,51.90
2024-05-09T07:33:54.536Z,51.08
2024-05-09T07:34:54.498Z,50.61
2024-05-09T07:35:54.558Z,49.87
2024-05-09T07:36:54.631Z,51.68
2024-05-09T07:37:54.789Z,52.82
2024-05-09T07:38:54.798Z,51.75
2024-05-09T07:39:54.869Z,50.36
2024-05-09T07:40:55.010Z,52.76
2024-05-09T07:41:55.068Z,50.71
2024-05-09T07:42:55.149Z,51.98
2024-05-09T07:43:55.286Z,51.22
2024-05-09T07:44:56.916Z,52.92
2024-05-09T07:45:57.884Z,51.11
2024-05-09T07:48:13.959Z,51.18
2024-05-09T07:49:44.203Z,51.31
2024-05-09T07:50:35.331Z,51.42
2024-05-09T07:52:38.701Z,51.44
2024-05-09T07:53:21.841Z,51.46
2024-05-09T07:53:58.306Z,51.38
2024-05-09T07:54:56.730Z,51.44
2024-05-09T07:55:55.725Z,51.69
2024-05-09T07:56:55.680Z,52.04
2024-05-09T07:57:55.456Z,51.18
2024-05-09T07:58:55.410Z,50.38
2024-05-09T07:59:55.381Z,50.00
2024-05-09T08:00:55.532Z,50.62
2024-05-09T08:01:55.486Z,51.60
2024-05-09T08:02:55.479Z,51.74
2024-05-09T08:03:55.552Z,55.06
2024-05-09T08:04:55.536Z,51.29
2024-05-09T08:05:55.369Z,50.42
2024-05-09T08:06:55.538Z,49.93
2024-05-09T08:07:55.400Z,51.74
2024-05-09T08:08:55.943Z,51.13
2024-05-09T08:09:55.465Z,51.45
2024-05-09T08:10:55.539Z,51.79
2024-05-09T08:11:55.454Z,53.75
2024-05-09T08:12:55.522Z,56.76
2024-05-09T08:13:55.470Z,55.12
2024-05-09T08:14:55.606Z,55.00
2024-05-09T08:15:55.647Z,55.21
2024-05-09T08:16:55.754Z,57.32
2024-05-09T08:17:56.123Z,52.82
2024-05-09T08:18:55.954Z,53.39
2024-05-09T08:19:55.817Z,54.56
2024-05-09T08:20:55.853Z,51.41
2024-05-09T08:21:55.962Z,54.10
2024-05-09T08:22:55.902Z,53.48
2024-05-09T08:23:55.950Z,53.54
2024-05-09T08:24:56.011Z,53.52
2024-05-09T08:25:55.976Z,53.37
2024-05-09T08:26:56.021Z,50.75
2024-05-09T08:27:56.094Z,51.83
2024-05-09T08:28:56.071Z,50.35
2024-05-09T08:29:56.125Z,53.76
2024-05-09T08:30:56.204Z,53.80
2024-05-09T08:31:56.290Z,51.68
2024-05-09T08:32:56.254Z,53.59
2024-05-09T08:33:56.518Z,55.37
2024-05-09T08:34:56.398Z,55.57
2024-05-09T08:35:56.417Z,55.40
2024-05-09T08:36:57.795Z,53.81
2024-05-09T08:37:57.600Z,53.93
2024-05-09T08:38:56.528Z,54.20
2024-05-09T08:39:56.570Z,53.81
2024-05-09T08:40:56.565Z,54.58
2024-05-09T08:41:56.503Z,53.12
2024-05-09T08:42:56.617Z,54.05
2024-05-09T08:43:56.516Z,50.38
2024-05-09T08:44:56.547Z,52.63
2024-05-09T08:45:56.590Z,53.88
2024-05-09T08:46:56.552Z,50.59
2024-05-09T08:47:56.657Z,53.87
2024-05-09T08:48:56.780Z,50.07
2024-05-09T08:49:56.647Z,51.41
2024-05-09T08:50:56.650Z,50.89
2024-05-09T08:51:56.743Z,51.25
2024-05-09T08:52:56.802Z,50.41
2024-05-09T08:53:56.881Z,52.14
2024-05-09T08:54:57.039Z,53.74
2024-05-09T08:55:57.015Z,52.42
2024-05-09T08:56:57.090Z,53.64
2024-05-09T08:57:57.199Z,50.00
2024-05-09T08:58:57.287Z,52.42
2024-05-09T08:59:57.339Z,51.67
2024-05-09T09:00:57.565Z,51.83
2024-05-09T09:01:57.546Z,52.36
2024-05-09T09:02:57.620Z,52.02
2024-05-09T09:03:57.757Z,52.11
2024-05-09T09:04:57.804Z,53.93
2024-05-09T09:05:57.793Z,52.72
2024-05-09T09:06:59.206Z,52.92
2024-05-09T09:07:57.944Z,54.20
2024-05-09T09:08:57.974Z,57.62
2024-05-09T09:09:58.062Z,54.30
2024-05-09T09:10:58.131Z,55.96
2024-05-09T09:11:58.234Z,53.88
2024-05-09T09:12:58.394Z,54.90
2024-05-09T09:13:58.325Z,51.75
2024-05-09T09:14:58.384Z,54.07
2024-05-09T09:15:59.129Z,55.49
2024-05-09T09:16:58.504Z,54.93
2024-05-09T09:17:58.668Z,54.02
2024-05-09T09:18:58.668Z,53.83
2024-05-09T09:19:58.607Z,53.04
2024-05-09T09:20:58.592Z,54.07
2024-05-09T09:21:58.738Z,52.81
2024-05-09T09:22:58.663Z,53.15
2024-05-09T09:23:58.702Z,52.54
2024-05-09T09:24:58.790Z,52.35
2024-05-09T09:25:58.796Z,52.31
2024-05-09T09:26:58.898Z,52.84
2024-05-09T09:27:59.116Z,50.69
2024-05-09T09:28:59.059Z,51.80
2024-05-09T09:29:59.088Z,52.41
2024-05-09T09:30:59.260Z,50.33
2024-05-09T09:31:59.240Z,50.00
2024-05-09T09:32:59.453Z,50.62
2024-05-09T09:34:00.268Z,53.54
2024-05-09T09:34:59.494Z,51.74
2024-05-09T09:35:59.556Z,53.10
2024-05-09T09:36:59.710Z,52.62
2024-05-09T09:37:59.703Z,54.68
2024-05-09T09:38:59.788Z,53.34
2024-05-09T09:39:59.882Z,49.66
2024-05-09T09:41:00.172Z,51.08
2024-05-09T09:42:00.035Z,50.00
2024-05-09T09:43:00.149Z,52.21
2024-05-09T09:44:00.174Z,50.72
2024-05-09T09:45:04.956Z,54.73
2024-05-09T09:46:01.328Z,54.77
2024-05-09T09:47:00.308Z,55.00
2024-05-09T09:48:00.351Z,55.57
2024-05-09T09:49:00.308Z,55.42
2024-05-09T09:50:00.281Z,52.72
2024-05-09T09:51:00.268Z,54.36
2024-05-09T09:52:00.312Z,54.87
2024-05-09T09:53:00.344Z,54.20
2024-05-09T09:54:00.282Z,50.70
2024-05-09T09:55:01.036Z,53.66
2024-05-09T09:56:00.297Z,50.33
2024-05-09T09:57:00.297Z,51.08
2024-05-09T09:58:00.413Z,50.39
2024-05-09T09:59:00.320Z,51.50
2024-05-09T10:00:00.297Z,51.97
2024-05-09T10:01:00.425Z,50.17
2024-05-09T10:02:00.486Z,51.42
2024-05-09T10:03:00.740Z,51.49
2024-05-09T10:04:00.551Z,51.22
2024-05-09T10:05:00.504Z,50.44
2024-05-09T10:06:00.540Z,50.20
2024-05-09T10:07:00.646Z,50.59
2024-05-09T10:08:00.651Z,52.61
2024-05-09T10:09:00.767Z,51.50
2024-05-09T10:10:00.905Z,50.96
2024-05-09T10:11:01.008Z,51.62
2024-05-09T10:12:01.069Z,53.68
2024-05-09T10:13:01.342Z,52.42
2024-05-09T10:14:01.168Z,55.08
2024-05-09T10:15:01.252Z,54.35
2024-05-09T10:16:01.361Z,53.98
2024-05-09T10:17:01.428Z,56.51
2024-05-09T10:18:01.550Z,50.90
2024-05-09T10:19:01.612Z,52.89
2024-05-09T10:20:01.669Z,53.03
2024-05-09T10:21:01.705Z,50.70
2024-05-09T10:22:01.840Z,52.26
2024-05-09T10:23:01.859Z,52.66
2024-05-09T10:24:01.949Z,54.39
2024-05-09T10:25:04.393Z,53.66
2024-05-09T10:26:02.034Z,52.12
2024-05-09T10:27:02.035Z,53.92
2024-05-09T10:28:02.047Z,53.13
2024-05-09T10:29:02.036Z,51.72
2024-05-09T10:30:02.867Z,52.97
2024-05-09T10:31:02.071Z,53.10
2024-05-09T10:32:02.041Z,53.20
2024-05-09T10:33:02.120Z,53.79
2024-05-09T10:34:02.251Z,54.14
2024-05-09T10:35:02.166Z,57.22
2024-05-09T10:36:02.098Z,57.49
2024-05-09T10:37:04.688Z,55.58
2024-05-09T10:38:02.096Z,55.68
2024-05-09T10:39:02.107Z,55.67
2024-05-09T10:40:02.136Z,55.75
2024-05-09T10:41:02.079Z,53.79
2024-05-09T10:42:02.088Z,54.60
2024-05-09T10:43:05.640Z,51.29
2024-05-09T10:44:02.158Z,51.50
2024-05-09T10:45:02.067Z,51.96
2024-05-09T10:46:02.123Z,51.80
2024-05-09T10:47:02.148Z,51.37
2024-05-09T10:48:02.385Z,50.98
2024-05-09T10:49:05.279Z,51.01
2024-05-09T10:50:04.940Z,51.05
2024-05-09T10:51:02.296Z,51.23
2024-05-09T10:52:02.362Z,51.52
2024-05-09T10:53:02.369Z,52.51
2024-05-09T10:54:02.373Z,52.46
2024-05-09T10:55:05.431Z,50.31
2024-05-09T10:56:02.377Z,50.26
2024-05-09T10:57:02.393Z,52.58
2024-05-09T10:58:02.418Z,54.75
2024-05-09T10:59:02.389Z,50.00
2024-05-09T11:00:02.392Z,50.98
2024-05-09T11:01:05.409Z,55.41
2024-05-09T11:02:02.589Z,55.45
2024-05-09T11:03:02.506Z,54.47
2024-05-09T11:04:02.604Z,54.85
2024-05-09T11:05:02.509Z,51.48
2024-05-09T11:06:02.415Z,53.22
2024-05-09T11:07:05.174Z,51.96
2024-05-09T11:08:02.414Z,52.02
2024-05-09T11:09:02.418Z,52.46
2024-05-09T11:10:02.425Z,53.38
2024-05-09T11:11:02.421Z,52.20
2024-05-09T11:12:02.485Z,54.75
2024-05-09T11:13:02.486Z,54.54
2024-05-09T11:14:02.424Z,54.00
2024-05-09T11:15:02.427Z,50.55
2024-05-09T11:16:02.549Z,52.58
2024-05-09T11:17:02.536Z,52.34
2024-05-09T11:18:02.528Z,53.04
2024-05-09T11:19:02.601Z,51.86
2024-05-09T11:20:04.446Z,51.96
2024-05-09T11:21:02.511Z,52.68
2024-05-09T11:22:02.509Z,53.42
2024-05-09T11:23:02.439Z,54.61
2024-05-09T11:24:02.441Z,52.52
2024-05-09T11:25:02.496Z,51.96
2024-05-09T11:26:02.456Z,51.88
2024-05-09T11:27:02.496Z,50.20
2024-05-09T11:28:02.624Z,53.54
2024-05-09T11:29:02.550Z,52.25
2024-05-09T11:30:04.389Z,54.49
2024-05-09T11:31:02.616Z,54.33
2024-05-09T11:32:02.627Z,55.38
2024-05-09T11:33:03.056Z,55.89
2024-05-09T11:34:02.624Z,60.05
2024-05-09T11:35:02.665Z,62.09
2024-05-09T11:36:02.683Z,63.42
2024-05-09T11:37:02.664Z,63.51
2024-05-09T11:38:02.611Z,64.08
2024-05-09T11:39:02.615Z,66.48
2024-05-09T11:40:03.422Z,65.67
2024-05-09T11:41:02.613Z,69.73
2024-05-09T11:42:02.617Z,66.31
2024-05-09T11:43:02.657Z,66.53
2024-05-09T11:44:02.611Z,67.45
2024-05-09T11:45:02.618Z,66.28
2024-05-09T11:46:03.214Z,66.83
2024-05-09T11:47:02.604Z,67.50
2024-05-09T11:48:02.907Z,65.35
2024-05-09T11:49:02.849Z,66.33
2024-05-09T11:50:04.270Z,64.33
2024-05-09T11:51:02.610Z,67.16
2024-05-09T11:52:02.717Z,66.87
2024-05-09T11:53:02.727Z,66.06
2024-05-09T11:54:02.683Z,67.30
2024-05-09T11:55:02.804Z,65.90
2024-05-09T11:56:02.854Z,64.82
2024-05-09T11:57:02.716Z,64.11
2024-05-09T11:58:02.739Z,62.52
2024-05-09T11:59:02.654Z,61.83
2024-05-09T12:00:03.218Z,63.05
2024-05-09T12:01:02.871Z,61.18
2024-05-09T12:02:02.802Z,60.47
2024-05-09T12:03:02.695Z,55.72
2024-05-09T12:04:03.062Z,60.27
2024-05-09T12:05:02.751Z,57.34
2024-05-09T12:06:02.893Z,58.69
2024-05-09T12:07:02.699Z,59.98
2024-05-09T12:08:02.780Z,58.77
2024-05-09T12:09:02.669Z,61.10
2024-05-09T12:10:03.472Z,58.51
2024-05-09T12:11:02.757Z,54.98
2024-05-09T12:12:02.699Z,54.50
2024-05-09T12:13:04.708Z,52.79
2024-05-09T12:14:02.761Z,54.54
2024-05-09T12:15:02.814Z,50.84
2024-05-09T12:16:02.873Z,51.35
2024-05-09T12:17:02.774Z,52.65
2024-05-09T12:18:04.154Z,50.85
2024-05-09T12:19:02.994Z,52.20
2024-05-09T12:20:04.291Z,51.58
2024-05-09T12:21:02.761Z,51.66
2024-05-09T12:22:02.836Z,51.34
2024-05-09T12:23:02.766Z,48.00
2024-05-09T12:24:02.787Z,47.44
2024-05-09T12:25:02.821Z,44.04
2024-05-09T12:26:02.821Z,51.02
2024-05-09T12:27:02.755Z,50.19
2024-05-09T12:28:02.828Z,53.72
2024-05-09T12:29:02.774Z,53.61
2024-05-09T12:30:03.408Z,53.51
2024-05-09T12:31:02.792Z,51.24
2024-05-09T12:32:02.822Z,52.69
2024-05-09T12:33:02.865Z,50.65
2024-05-09T12:34:02.861Z,51.74
2024-05-09T12:35:02.755Z,50.89
2024-05-09T12:36:02.758Z,52.27
2024-05-09T12:37:02.851Z,52.41
2024-05-09T12:38:02.772Z,50.73
2024-05-09T12:39:02.794Z,52.76
2024-05-09T12:40:03.655Z,55.70
2024-05-09T12:41:02.813Z,54.59
2024-05-09T12:42:02.766Z,54.82
2024-05-09T12:43:02.865Z,54.92
2024-05-09T12:44:02.803Z,55.28
2024-05-09T12:45:02.849Z,55.54
2024-05-09T12:46:03.003Z,57.47
2024-05-09T12:47:03.031Z,53.71
2024-05-09T12:48:03.290Z,52.76
2024-05-09T12:49:03.443Z,52.81
2024-05-09T12:50:04.920Z,51.68
2024-05-09T12:51:03.394Z,54.82
2024-05-09T12:52:03.449Z,52.18
2024-05-09T12:53:04.475Z,53.85
2024-05-09T12:54:03.503Z,53.08
2024-05-09T12:55:03.669Z,51.98
2024-05-09T12:56:04.871Z,51.02
2024-05-09T12:57:03.661Z,53.12